Language selection

My Weather Profile Weather Topics  | 

Atlantic - Labrador: Past 24 Hour Conditions

 

Hopedale

08:00 PM ADT 21 June 2021
Disclaimer

This table is a summary of hourly weather conditions for the past 24 hours.
Please note that these observations might not always be representative of weather conditions over their associated marine area.

Date / Time
(ADT)
Wind(knots) Conditions Visibility(km) Pressure(kPa) Air tempC) Relative humidity(%) Dew pointC)
21 June 2021
20:00 3 N/A N/A 100.8 5 94 4
19:00 3 N/A N/A 100.8 5 93 4
18:00 4 gust 17 N/A N/A 100.8 5 93 4
17:00 4 N/A N/A 100.9 5 94 4
16:00 7 N/A N/A 100.9 6 90 5
15:00 5 N/A N/A 100.9 6 92 5
14:00 9 N/A N/A 100.9 7 91 6
13:00 8 N/A N/A 100.9 6 94 5
12:00 9 gust 31 N/A N/A 100.9 5 97 5
11:00 10 N/A N/A 100.9 5 97 5
10:00 9 N/A N/A 100.9 5 97 5
9:00 10 gust 17 N/A N/A 100.8 5 97 4
8:00 11 gust 16 N/A N/A 100.8 5 97 5
7:00 9 gust 15 N/A N/A 100.8 5 98 4
6:00 12 gust 18 N/A N/A 100.7 5 98 4
5:00 12 gust 17 N/A N/A 100.7 4 98 4
4:00 11 gust 18 N/A N/A 100.7 5 98 4
3:00 14 gust 21 N/A N/A 100.7 4 98 4
2:00 14 gust 22 N/A N/A 100.7 5 98 4
1:00 12 gust 19 N/A N/A 100.6 5 98 4
0:00 14 gust 19 N/A N/A 100.6 5 98 4
20 June 2021
23:00 18 gust 29 N/A N/A 100.6 5 98 5
22:00 16 gust 21 N/A N/A 100.6 5 98 5
21:00 15 gust 21 N/A N/A 100.6 5 97 5
20:00 13 gust 21 N/A N/A 100.6 5 97 5

Zoom-in to make a selection

Map of Atlantic - Labrador marine weather areas Kangiqsualujjuaq Airport Cape Kakkiviak Cape Kiglapait Cartwright Airport CFB Goose Bay Hopedale Mary's Harbour Nain Airport Makkovik Airport Saglek Tukialik Bay
Legend:
buoy Buoy
land station Land Station

Atlantic - Labrador Area

Another Region

What we are doing

Date modified: